sensor_id;sensor_type;location;lat;lon;timestamp;P1;durP1;ratioP1;P2;durP2;ratioP2
48963;SDS011;34776;48.180;16.420;2022-09-09T00:00:56;0.90;;;0.90;;
48963;SDS011;34776;48.180;16.420;2022-09-09T00:03:51;0.82;;;0.80;;
48963;SDS011;34776;48.180;16.420;2022-09-09T00:06:30;1.30;;;0.90;;
48963;SDS011;34776;48.180;16.420;2022-09-09T00:09:02;1.17;;;1.00;;
48963;SDS011;34776;48.180;16.420;2022-09-09T00:11:35;1.50;;;1.40;;
48963;SDS011;34776;48.180;16.420;2022-09-09T00:14:03;1.20;;;1.05;;
48963;SDS011;34776;48.180;16.420;2022-09-09T00:16:38;1.55;;;1.30;;
48963;SDS011;34776;48.180;16.420;2022-09-09T00:19:20;1.90;;;1.23;;
48963;SDS011;34776;48.180;16.420;2022-09-09T00:21:53;2.25;;;1.23;;
48963;SDS011;34776;48.180;16.420;2022-09-09T00:24:32;1.45;;;1.20;;
48963;SDS011;34776;48.180;16.420;2022-09-09T00:27:08;2.05;;;1.15;;
48963;SDS011;34776;48.180;16.420;2022-09-09T00:29:45;2.22;;;1.10;;
48963;SDS011;34776;48.180;16.420;2022-09-09T00:32:19;1.20;;;1.10;;
48963;SDS011;34776;48.180;16.420;2022-09-09T00:40:24;1.20;;;1.10;;
48963;SDS011;34776;48.180;16.420;2022-09-09T00:59:51;1.45;;;1.35;;
48963;SDS011;34776;48.180;16.420;2022-09-09T01:05:02;1.20;;;1.10;;
48963;SDS011;34776;48.180;16.420;2022-09-09T01:07:38;2.63;;;1.50;;
48963;SDS011;34776;48.180;16.420;2022-09-09T01:10:11;1.30;;;1.20;;
48963;SDS011;34776;48.180;16.420;2022-09-09T01:12:51;1.60;;;1.10;;
48963;SDS011;34776;48.180;16.420;2022-09-09T01:15:22;1.50;;;1.38;;
48963;SDS011;34776;48.180;16.420;2022-09-09T01:17:58;1.45;;;1.35;;
48963;SDS011;34776;48.180;16.420;2022-09-09T01:20:39;3.47;;;1.52;;
48963;SDS011;34776;48.180;16.420;2022-09-09T01:28:39;1.70;;;1.20;;
48963;SDS011;34776;48.180;16.420;2022-09-09T01:31:07;1.40;;;1.30;;
48963;SDS011;34776;48.180;16.420;2022-09-09T01:33:38;2.65;;;1.17;;
48963;SDS011;34776;48.180;16.420;2022-09-09T01:38:34;1.58;;;1.10;;
48963;SDS011;34776;48.180;16.420;2022-09-09T01:41:01;2.70;;;1.20;;
48963;SDS011;34776;48.180;16.420;2022-09-09T01:43:27;1.48;;;1.05;;
48963;SDS011;34776;48.180;16.420;2022-09-09T01:45:54;1.30;;;1.20;;
48963;SDS011;34776;48.180;16.420;2022-09-09T01:48:24;1.30;;;1.20;;
48963;SDS011;34776;48.180;16.420;2022-09-09T01:50:50;1.17;;;0.90;;
48963;SDS011;34776;48.180;16.420;2022-09-09T01:53:16;0.77;;;0.77;;
48963;SDS011;34776;48.180;16.420;2022-09-09T02:07:24;2.13;;;1.20;;
48963;SDS011;34776;48.180;16.420;2022-09-09T02:10:23;1.13;;;0.88;;
48963;SDS011;34776;48.180;16.420;2022-09-09T02:12:54;1.48;;;1.10;;
48963;SDS011;34776;48.180;16.420;2022-09-09T02:15:29;1.17;;;1.08;;
48963;SDS011;34776;48.180;16.420;2022-09-09T02:18:08;2.22;;;1.27;;
48963;SDS011;34776;48.180;16.420;2022-09-09T02:20:38;1.67;;;1.08;;
48963;SDS011;34776;48.180;16.420;2022-09-09T02:23:05;1.25;;;1.10;;
48963;SDS011;34776;48.180;16.420;2022-09-09T02:25:33;1.27;;;1.10;;
48963;SDS011;34776;48.180;16.420;2022-09-09T02:28:02;1.20;;;1.10;;
48963;SDS011;34776;48.180;16.420;2022-09-09T02:30:32;1.25;;;1.15;;
48963;SDS011;34776;48.180;16.420;2022-09-09T02:32:59;2.03;;;1.30;;
48963;SDS011;34776;48.180;16.420;2022-09-09T02:35:28;2.15;;;1.05;;
48963;SDS011;34776;48.180;16.420;2022-09-09T02:37:58;1.50;;;1.20;;
48963;SDS011;34776;48.180;16.420;2022-09-09T02:40:28;2.03;;;1.27;;
48963;SDS011;34776;48.180;16.420;2022-09-09T02:42:54;3.03;;;1.38;;
48963;SDS011;34776;48.180;16.420;2022-09-09T02:45:22;1.88;;;1.20;;
48963;SDS011;34776;48.180;16.420;2022-09-09T02:47:51;2.60;;;1.52;;
48963;SDS011;34776;48.180;16.420;2022-09-09T02:50:25;2.80;;;1.10;;
48963;SDS011;34776;48.180;16.420;2022-09-09T02:53:16;1.75;;;1.40;;
48963;SDS011;34776;48.180;16.420;2022-09-09T02:55:53;3.55;;;1.40;;
48963;SDS011;34776;48.180;16.420;2022-09-09T02:58:23;1.80;;;1.40;;
48963;SDS011;34776;48.180;16.420;2022-09-09T03:00:49;1.42;;;1.20;;
48963;SDS011;34776;48.180;16.420;2022-09-09T03:03:16;1.83;;;1.48;;
48963;SDS011;34776;48.180;16.420;2022-09-09T03:05:44;5.07;;;1.67;;
48963;SDS011;34776;48.180;16.420;2022-09-09T03:08:10;1.92;;;1.55;;
48963;SDS011;34776;48.180;16.420;2022-09-09T03:10:36;2.65;;;1.60;;
48963;SDS011;34776;48.180;16.420;2022-09-09T03:13:02;2.25;;;1.42;;
48963;SDS011;34776;48.180;16.420;2022-09-09T03:15:29;2.13;;;1.40;;
48963;SDS011;34776;48.180;16.420;2022-09-09T03:17:55;2.55;;;1.90;;
48963;SDS011;34776;48.180;16.420;2022-09-09T03:20:22;1.83;;;1.38;;
48963;SDS011;34776;48.180;16.420;2022-09-09T03:22:48;2.28;;;1.70;;
48963;SDS011;34776;48.180;16.420;2022-09-09T03:25:13;2.28;;;1.60;;
48963;SDS011;34776;48.180;16.420;2022-09-09T03:27:38;1.90;;;1.65;;
48963;SDS011;34776;48.180;16.420;2022-09-09T03:30:04;2.40;;;1.90;;
48963;SDS011;34776;48.180;16.420;2022-09-09T03:32:30;2.15;;;1.48;;
48963;SDS011;34776;48.180;16.420;2022-09-09T03:34:56;1.52;;;1.42;;
48963;SDS011;34776;48.180;16.420;2022-09-09T03:37:21;2.63;;;1.90;;
48963;SDS011;34776;48.180;16.420;2022-09-09T03:39:47;3.72;;;1.65;;
48963;SDS011;34776;48.180;16.420;2022-09-09T03:42:13;5.97;;;1.90;;
48963;SDS011;34776;48.180;16.420;2022-09-09T03:44:47;3.92;;;1.70;;
48963;SDS011;34776;48.180;16.420;2022-09-09T03:47:15;3.53;;;1.80;;
48963;SDS011;34776;48.180;16.420;2022-09-09T03:49:44;3.33;;;1.80;;
48963;SDS011;34776;48.180;16.420;2022-09-09T03:52:10;3.10;;;1.92;;
48963;SDS011;34776;48.180;16.420;2022-09-09T03:54:35;5.53;;;2.28;;
48963;SDS011;34776;48.180;16.420;2022-09-09T03:57:01;3.45;;;1.95;;
48963;SDS011;34776;48.180;16.420;2022-09-09T03:59:26;4.07;;;2.00;;
48963;SDS011;34776;48.180;16.420;2022-09-09T04:01:52;4.18;;;1.77;;
48963;SDS011;34776;48.180;16.420;2022-09-09T04:04:18;4.45;;;1.95;;
48963;SDS011;34776;48.180;16.420;2022-09-09T04:06:44;2.90;;;2.28;;
48963;SDS011;34776;48.180;16.420;2022-09-09T04:09:10;7.50;;;1.92;;
48963;SDS011;34776;48.180;16.420;2022-09-09T04:11:35;3.75;;;1.85;;
48963;SDS011;34776;48.180;16.420;2022-09-09T04:14:01;4.45;;;1.58;;
48963;SDS011;34776;48.180;16.420;2022-09-09T04:16:27;3.00;;;2.08;;
48963;SDS011;34776;48.180;16.420;2022-09-09T04:18:52;4.22;;;1.88;;
48963;SDS011;34776;48.180;16.420;2022-09-09T04:21:18;7.13;;;2.03;;
48963;SDS011;34776;48.180;16.420;2022-09-09T04:23:43;2.78;;;1.55;;
48963;SDS011;34776;48.180;16.420;2022-09-09T04:26:09;2.97;;;2.00;;
48963;SDS011;34776;48.180;16.420;2022-09-09T04:28:35;6.07;;;2.50;;
48963;SDS011;34776;48.180;16.420;2022-09-09T04:31:20;3.67;;;2.15;;
48963;SDS011;34776;48.180;16.420;2022-09-09T04:33:48;8.07;;;2.50;;
48963;SDS011;34776;48.180;16.420;2022-09-09T04:36:14;4.97;;;2.30;;
48963;SDS011;34776;48.180;16.420;2022-09-09T04:38:40;8.43;;;2.45;;
48963;SDS011;34776;48.180;16.420;2022-09-09T04:41:06;5.93;;;2.38;;
48963;SDS011;34776;48.180;16.420;2022-09-09T04:43:32;5.28;;;2.42;;
48963;SDS011;34776;48.180;16.420;2022-09-09T04:45:58;6.43;;;2.80;;
48963;SDS011;34776;48.180;16.420;2022-09-09T04:48:26;5.82;;;2.72;;
48963;SDS011;34776;48.180;16.420;2022-09-09T04:50:59;3.67;;;2.00;;
48963;SDS011;34776;48.180;16.420;2022-09-09T04:53:26;6.22;;;2.30;;
48963;SDS011;34776;48.180;16.420;2022-09-09T04:56:14;4.57;;;2.00;;
48963;SDS011;34776;48.180;16.420;2022-09-09T04:58:40;1.95;;;1.80;;
48963;SDS011;34776;48.180;16.420;2022-09-09T05:01:10;5.55;;;2.97;;
48963;SDS011;34776;48.180;16.420;2022-09-09T05:03:37;2.65;;;1.92;;
48963;SDS011;34776;48.180;16.420;2022-09-09T05:06:03;2.63;;;2.25;;
48963;SDS011;34776;48.180;16.420;2022-09-09T05:08:36;2.22;;;2.00;;
48963;SDS011;34776;48.180;16.420;2022-09-09T05:11:03;4.07;;;2.20;;
48963;SDS011;34776;48.180;16.420;2022-09-09T05:13:29;3.35;;;2.22;;
48963;SDS011;34776;48.180;16.420;2022-09-09T05:15:56;4.47;;;2.20;;
48963;SDS011;34776;48.180;16.420;2022-09-09T05:18:21;3.50;;;2.10;;
48963;SDS011;34776;48.180;16.420;2022-09-09T05:20:47;5.20;;;2.17;;
48963;SDS011;34776;48.180;16.420;2022-09-09T05:23:13;2.80;;;1.90;;
48963;SDS011;34776;48.180;16.420;2022-09-09T05:25:39;7.32;;;2.42;;
48963;SDS011;34776;48.180;16.420;2022-09-09T05:28:05;2.35;;;1.88;;
48963;SDS011;34776;48.180;16.420;2022-09-09T05:30:32;5.05;;;2.13;;
48963;SDS011;34776;48.180;16.420;2022-09-09T05:32:58;7.63;;;3.13;;
48963;SDS011;34776;48.180;16.420;2022-09-09T05:35:24;9.43;;;3.00;;
48963;SDS011;34776;48.180;16.420;2022-09-09T05:37:49;36.67;;;6.18;;
48963;SDS011;34776;48.180;16.420;2022-09-09T05:40:15;24.73;;;5.28;;
48963;SDS011;34776;48.180;16.420;2022-09-09T05:42:40;10.02;;;3.92;;
48963;SDS011;34776;48.180;16.420;2022-09-09T05:45:07;8.18;;;2.92;;
48963;SDS011;34776;48.180;16.420;2022-09-09T05:47:34;11.70;;;2.75;;
48963;SDS011;34776;48.180;16.420;2022-09-09T05:50:00;23.67;;;4.18;;
48963;SDS011;34776;48.180;16.420;2022-09-09T05:52:26;16.65;;;3.45;;
48963;SDS011;34776;48.180;16.420;2022-09-09T05:54:52;9.05;;;3.42;;
48963;SDS011;34776;48.180;16.420;2022-09-09T05:57:19;6.43;;;2.83;;
48963;SDS011;34776;48.180;16.420;2022-09-09T05:59:45;34.60;;;5.90;;
48963;SDS011;34776;48.180;16.420;2022-09-09T06:02:10;46.20;;;6.97;;
48963;SDS011;34776;48.180;16.420;2022-09-09T06:04:37;15.95;;;4.70;;
48963;SDS011;34776;48.180;16.420;2022-09-09T06:07:04;20.92;;;4.20;;
48963;SDS011;34776;48.180;16.420;2022-09-09T06:09:29;6.10;;;2.80;;
48963;SDS011;34776;48.180;16.420;2022-09-09T06:11:55;6.45;;;2.60;;
48963;SDS011;34776;48.180;16.420;2022-09-09T06:14:21;4.47;;;2.65;;
48963;SDS011;34776;48.180;16.420;2022-09-09T06:16:47;10.77;;;2.80;;
48963;SDS011;34776;48.180;16.420;2022-09-09T06:19:12;7.63;;;2.30;;
48963;SDS011;34776;48.180;16.420;2022-09-09T06:21:39;6.28;;;2.60;;
48963;SDS011;34776;48.180;16.420;2022-09-09T06:24:05;5.05;;;2.75;;
48963;SDS011;34776;48.180;16.420;2022-09-09T06:26:33;6.63;;;3.20;;
48963;SDS011;34776;48.180;16.420;2022-09-09T06:29:00;7.20;;;2.47;;
48963;SDS011;34776;48.180;16.420;2022-09-09T06:31:28;11.85;;;4.63;;
48963;SDS011;34776;48.180;16.420;2022-09-09T06:33:56;7.90;;;3.20;;
48963;SDS011;34776;48.180;16.420;2022-09-09T06:36:23;8.18;;;3.22;;
48963;SDS011;34776;48.180;16.420;2022-09-09T06:38:56;4.68;;;2.50;;
48963;SDS011;34776;48.180;16.420;2022-09-09T06:41:22;5.22;;;2.60;;
48963;SDS011;34776;48.180;16.420;2022-09-09T06:43:51;2.78;;;2.05;;
48963;SDS011;34776;48.180;16.420;2022-09-09T06:46:17;2.47;;;2.00;;
48963;SDS011;34776;48.180;16.420;2022-09-09T06:48:44;2.47;;;1.92;;
48963;SDS011;34776;48.180;16.420;2022-09-09T06:51:11;3.85;;;2.05;;
48963;SDS011;34776;48.180;16.420;2022-09-09T06:53:38;3.83;;;2.15;;
48963;SDS011;34776;48.180;16.420;2022-09-09T06:58:49;3.67;;;1.83;;
48963;SDS011;34776;48.180;16.420;2022-09-09T07:01:17;7.38;;;1.80;;
48963;SDS011;34776;48.180;16.420;2022-09-09T07:03:48;6.07;;;1.90;;
48963;SDS011;34776;48.180;16.420;2022-09-09T07:06:20;2.28;;;1.58;;
48963;SDS011;34776;48.180;16.420;2022-09-09T07:08:50;2.80;;;2.00;;
48963;SDS011;34776;48.180;16.420;2022-09-09T07:11:20;4.93;;;2.03;;
48963;SDS011;34776;48.180;16.420;2022-09-09T07:13:47;4.15;;;1.77;;
48963;SDS011;34776;48.180;16.420;2022-09-09T07:16:14;4.40;;;2.25;;
48963;SDS011;34776;48.180;16.420;2022-09-09T07:18:42;5.35;;;2.17;;
48963;SDS011;34776;48.180;16.420;2022-09-09T07:21:09;2.70;;;2.28;;
48963;SDS011;34776;48.180;16.420;2022-09-09T07:23:37;2.85;;;2.13;;
48963;SDS011;34776;48.180;16.420;2022-09-09T07:26:06;5.20;;;2.25;;
48963;SDS011;34776;48.180;16.420;2022-09-09T07:28:37;3.22;;;2.05;;
48963;SDS011;34776;48.180;16.420;2022-09-09T07:31:04;1.55;;;1.40;;
48963;SDS011;34776;48.180;16.420;2022-09-09T07:33:32;2.08;;;1.60;;
48963;SDS011;34776;48.180;16.420;2022-09-09T07:36:03;2.33;;;1.80;;
48963;SDS011;34776;48.180;16.420;2022-09-09T07:38:40;1.73;;;1.52;;
48963;SDS011;34776;48.180;16.420;2022-09-09T07:43:44;4.22;;;1.65;;
48963;SDS011;34776;48.180;16.420;2022-09-09T07:46:11;5.20;;;3.85;;
48963;SDS011;34776;48.180;16.420;2022-09-09T07:48:39;4.00;;;2.78;;
48963;SDS011;34776;48.180;16.420;2022-09-09T07:51:16;13.50;;;3.30;;
48963;SDS011;34776;48.180;16.420;2022-09-09T07:53:44;14.55;;;3.30;;
48963;SDS011;34776;48.180;16.420;2022-09-09T07:56:11;20.50;;;3.53;;
48963;SDS011;34776;48.180;16.420;2022-09-09T07:58:40;14.05;;;3.20;;
48963;SDS011;34776;48.180;16.420;2022-09-09T08:01:07;6.22;;;1.75;;
48963;SDS011;34776;48.180;16.420;2022-09-09T08:03:37;6.05;;;1.50;;
48963;SDS011;34776;48.180;16.420;2022-09-09T08:06:03;20.00;;;3.45;;
48963;SDS011;34776;48.180;16.420;2022-09-09T08:08:32;11.23;;;3.20;;
48963;SDS011;34776;48.180;16.420;2022-09-09T08:11:05;16.20;;;2.70;;
48963;SDS011;34776;48.180;16.420;2022-09-09T08:13:33;4.18;;;2.08;;
48963;SDS011;34776;48.180;16.420;2022-09-09T08:16:34;4.32;;;1.95;;
48963;SDS011;34776;48.180;16.420;2022-09-09T08:18:53;4.63;;;1.70;;
48963;SDS011;34776;48.180;16.420;2022-09-09T08:21:21;26.58;;;3.50;;
48963;SDS011;34776;48.180;16.420;2022-09-09T08:23:49;25.27;;;3.03;;
48963;SDS011;34776;48.180;16.420;2022-09-09T08:26:27;20.52;;;3.67;;
48963;SDS011;34776;48.180;16.420;2022-09-09T08:28:54;86.75;;;9.50;;
48963;SDS011;34776;48.180;16.420;2022-09-09T08:31:28;56.75;;;6.22;;
48963;SDS011;34776;48.180;16.420;2022-09-09T08:33:59;23.88;;;3.33;;
48963;SDS011;34776;48.180;16.420;2022-09-09T08:36:27;28.00;;;4.43;;
48963;SDS011;34776;48.180;16.420;2022-09-09T08:38:55;73.35;;;9.77;;
48963;SDS011;34776;48.180;16.420;2022-09-09T08:44:14;42.42;;;7.57;;
48963;SDS011;34776;48.180;16.420;2022-09-09T08:47:04;13.27;;;2.83;;
48963;SDS011;34776;48.180;16.420;2022-09-09T08:55:38;45.15;;;6.60;;
48963;SDS011;34776;48.180;16.420;2022-09-09T08:58:12;37.45;;;5.90;;
48963;SDS011;34776;48.180;16.420;2022-09-09T09:12:24;6.07;;;2.85;;
48963;SDS011;34776;48.180;16.420;2022-09-09T09:14:54;3.58;;;1.30;;
48963;SDS011;34776;48.180;16.420;2022-09-09T09:17:23;97.63;;;10.18;;
48963;SDS011;34776;48.180;16.420;2022-09-09T09:19:52;14.48;;;3.30;;
48963;SDS011;34776;48.180;16.420;2022-09-09T09:22:22;31.23;;;4.47;;
48963;SDS011;34776;48.180;16.420;2022-09-09T09:25:00;7.72;;;2.35;;
48963;SDS011;34776;48.180;16.420;2022-09-09T09:30:24;10.68;;;1.65;;
48963;SDS011;34776;48.180;16.420;2022-09-09T09:33:28;14.63;;;2.85;;
48963;SDS011;34776;48.180;16.420;2022-09-09T09:35:49;52.60;;;6.35;;
48963;SDS011;34776;48.180;16.420;2022-09-09T09:38:19;45.97;;;6.63;;
48963;SDS011;34776;48.180;16.420;2022-09-09T09:40:54;190.30;;;16.70;;
48963;SDS011;34776;48.180;16.420;2022-09-09T09:46:05;5.85;;;1.63;;
48963;SDS011;34776;48.180;16.420;2022-09-09T09:48:44;51.95;;;6.65;;
48963;SDS011;34776;48.180;16.420;2022-09-09T09:51:12;10.82;;;2.50;;
48963;SDS011;34776;48.180;16.420;2022-09-09T09:53:41;7.15;;;1.90;;
48963;SDS011;34776;48.180;16.420;2022-09-09T09:56:08;7.63;;;3.97;;
48963;SDS011;34776;48.180;16.420;2022-09-09T09:58:46;6.30;;;2.40;;
48963;SDS011;34776;48.180;16.420;2022-09-09T10:01:25;3.75;;;1.90;;
48963;SDS011;34776;48.180;16.420;2022-09-09T10:04:02;13.65;;;3.10;;
48963;SDS011;34776;48.180;16.420;2022-09-09T10:06:38;5.38;;;1.73;;
48963;SDS011;34776;48.180;16.420;2022-09-09T10:09:18;4.70;;;1.58;;
48963;SDS011;34776;48.180;16.420;2022-09-09T10:22:34;2.58;;;1.27;;
48963;SDS011;34776;48.180;16.420;2022-09-09T10:36:23;3.58;;;1.27;;
48963;SDS011;34776;48.180;16.420;2022-09-09T10:55:20;33.47;;;4.35;;
48963;SDS011;34776;48.180;16.420;2022-09-09T10:57:57;39.40;;;4.65;;
48963;SDS011;34776;48.180;16.420;2022-09-09T11:00:27;2.63;;;1.35;;
48963;SDS011;34776;48.180;16.420;2022-09-09T11:03:04;22.10;;;2.83;;
48963;SDS011;34776;48.180;16.420;2022-09-09T11:05:41;11.82;;;2.35;;
48963;SDS011;34776;48.180;16.420;2022-09-09T11:13:40;11.57;;;1.70;;
48963;SDS011;34776;48.180;16.420;2022-09-09T11:18:56;10.00;;;1.80;;
48963;SDS011;34776;48.180;16.420;2022-09-09T11:27:03;49.47;;;5.85;;
48963;SDS011;34776;48.180;16.420;2022-09-09T11:32:23;22.50;;;4.32;;
48963;SDS011;34776;48.180;16.420;2022-09-09T11:37:51;21.55;;;3.58;;
48963;SDS011;34776;48.180;16.420;2022-09-09T11:40:25;46.40;;;5.15;;
48963;SDS011;34776;48.180;16.420;2022-09-09T11:45:37;116.07;;;14.50;;
48963;SDS011;34776;48.180;16.420;2022-09-09T11:48:25;91.13;;;9.40;;
48963;SDS011;34776;48.180;16.420;2022-09-09T11:51:28;153.50;;;17.83;;
48963;SDS011;34776;48.180;16.420;2022-09-09T11:53:53;296.58;;;29.95;;
48963;SDS011;34776;48.180;16.420;2022-09-09T11:59:22;33.53;;;5.07;;
48963;SDS011;34776;48.180;16.420;2022-09-09T12:04:32;8.15;;;2.72;;
48963;SDS011;34776;48.180;16.420;2022-09-09T12:07:32;147.07;;;14.45;;
48963;SDS011;34776;48.180;16.420;2022-09-09T12:10:03;66.28;;;9.05;;
48963;SDS011;34776;48.180;16.420;2022-09-09T12:12:47;45.22;;;5.75;;
48963;SDS011;34776;48.180;16.420;2022-09-09T12:17:41;58.05;;;6.72;;
48963;SDS011;34776;48.180;16.420;2022-09-09T12:28:22;191.77;;;19.23;;
48963;SDS011;34776;48.180;16.420;2022-09-09T12:31:01;75.53;;;9.35;;
48963;SDS011;34776;48.180;16.420;2022-09-09T12:33:37;33.97;;;5.68;;
48963;SDS011;34776;48.180;16.420;2022-09-09T12:36:10;19.25;;;3.65;;
48963;SDS011;34776;48.180;16.420;2022-09-09T12:38:41;25.00;;;3.10;;
48963;SDS011;34776;48.180;16.420;2022-09-09T12:41:18;16.20;;;3.00;;
48963;SDS011;34776;48.180;16.420;2022-09-09T12:43:48;11.65;;;2.45;;
48963;SDS011;34776;48.180;16.420;2022-09-09T12:46:23;11.52;;;1.95;;
48963;SDS011;34776;48.180;16.420;2022-09-09T12:48:58;3.75;;;1.33;;
48963;SDS011;34776;48.180;16.420;2022-09-09T12:53:56;18.80;;;3.08;;
48963;SDS011;34776;48.180;16.420;2022-09-09T12:56:27;80.18;;;9.15;;
48963;SDS011;34776;48.180;16.420;2022-09-09T12:58:56;58.03;;;7.68;;
48963;SDS011;34776;48.180;16.420;2022-09-09T13:01:32;221.35;;;22.20;;
48963;SDS011;34776;48.180;16.420;2022-09-09T13:03:58;127.10;;;13.73;;
48963;SDS011;34776;48.180;16.420;2022-09-09T13:06:25;118.65;;;14.15;;
48963;SDS011;34776;48.180;16.420;2022-09-09T13:08:52;52.70;;;7.47;;
48963;SDS011;34776;48.180;16.420;2022-09-09T13:13:57;35.88;;;4.90;;
48963;SDS011;34776;48.180;16.420;2022-09-09T13:16:30;24.85;;;4.50;;
48963;SDS011;34776;48.180;16.420;2022-09-09T13:18:58;14.93;;;2.67;;
48963;SDS011;34776;48.180;16.420;2022-09-09T13:21:32;27.60;;;3.75;;
48963;SDS011;34776;48.180;16.420;2022-09-09T13:24:03;9.13;;;2.40;;
48963;SDS011;34776;48.180;16.420;2022-09-09T13:26:32;41.65;;;5.18;;
48963;SDS011;34776;48.180;16.420;2022-09-09T13:29:18;52.03;;;7.50;;
48963;SDS011;34776;48.180;16.420;2022-09-09T13:31:44;40.15;;;5.07;;
48963;SDS011;34776;48.180;16.420;2022-09-09T13:34:14;50.35;;;8.10;;
48963;SDS011;34776;48.180;16.420;2022-09-09T13:36:50;34.22;;;6.43;;
48963;SDS011;34776;48.180;16.420;2022-09-09T13:39:18;17.58;;;3.97;;
48963;SDS011;34776;48.180;16.420;2022-09-09T13:41:44;14.52;;;3.30;;
48963;SDS011;34776;48.180;16.420;2022-09-09T13:44:21;8.45;;;2.03;;
48963;SDS011;34776;48.180;16.420;2022-09-09T13:49:39;4.15;;;1.48;;
48963;SDS011;34776;48.180;16.420;2022-09-09T13:54:33;45.10;;;5.85;;
48963;SDS011;34776;48.180;16.420;2022-09-09T13:56:59;64.13;;;9.25;;
48963;SDS011;34776;48.180;16.420;2022-09-09T13:59:26;57.95;;;7.57;;
48963;SDS011;34776;48.180;16.420;2022-09-09T14:01:52;75.40;;;11.55;;
48963;SDS011;34776;48.180;16.420;2022-09-09T14:04:18;119.50;;;13.27;;
48963;SDS011;34776;48.180;16.420;2022-09-09T14:06:47;45.65;;;7.18;;
48963;SDS011;34776;48.180;16.420;2022-09-09T14:09:15;43.78;;;5.78;;
48963;SDS011;34776;48.180;16.420;2022-09-09T14:11:41;38.97;;;4.38;;
48963;SDS011;34776;48.180;16.420;2022-09-09T14:14:07;23.55;;;3.35;;
48963;SDS011;34776;48.180;16.420;2022-09-09T14:16:33;25.15;;;3.90;;
48963;SDS011;34776;48.180;16.420;2022-09-09T14:18:59;35.00;;;5.47;;
48963;SDS011;34776;48.180;16.420;2022-09-09T14:21:25;113.20;;;11.60;;
48963;SDS011;34776;48.180;16.420;2022-09-09T14:23:51;29.00;;;4.47;;
48963;SDS011;34776;48.180;16.420;2022-09-09T14:26:23;45.00;;;6.20;;
48963;SDS011;34776;48.180;16.420;2022-09-09T14:28:49;58.92;;;8.00;;
48963;SDS011;34776;48.180;16.420;2022-09-09T14:31:15;28.35;;;4.45;;
48963;SDS011;34776;48.180;16.420;2022-09-09T14:33:42;20.70;;;3.83;;
48963;SDS011;34776;48.180;16.420;2022-09-09T14:36:08;18.45;;;3.53;;
48963;SDS011;34776;48.180;16.420;2022-09-09T14:38:35;6.72;;;2.50;;
48963;SDS011;34776;48.180;16.420;2022-09-09T14:41:15;11.50;;;2.85;;
48963;SDS011;34776;48.180;16.420;2022-09-09T14:43:42;6.07;;;2.40;;
48963;SDS011;34776;48.180;16.420;2022-09-09T14:46:09;5.88;;;1.88;;
48963;SDS011;34776;48.180;16.420;2022-09-09T14:48:36;8.05;;;2.00;;
48963;SDS011;34776;48.180;16.420;2022-09-09T14:51:06;4.57;;;1.85;;
48963;SDS011;34776;48.180;16.420;2022-09-09T14:53:36;2.58;;;1.50;;
48963;SDS011;34776;48.180;16.420;2022-09-09T14:56:03;4.18;;;1.60;;
48963;SDS011;34776;48.180;16.420;2022-09-09T14:58:37;2.28;;;1.38;;
48963;SDS011;34776;48.180;16.420;2022-09-09T15:01:07;3.85;;;1.27;;
48963;SDS011;34776;48.180;16.420;2022-09-09T15:03:37;1.95;;;1.20;;
48963;SDS011;34776;48.180;16.420;2022-09-09T15:06:11;1.50;;;1.40;;
48963;SDS011;34776;48.180;16.420;2022-09-09T15:08:38;2.38;;;1.42;;
48963;SDS011;34776;48.180;16.420;2022-09-09T15:11:05;3.92;;;1.83;;
48963;SDS011;34776;48.180;16.420;2022-09-09T15:13:34;2.22;;;1.73;;
48963;SDS011;34776;48.180;16.420;2022-09-09T15:16:05;6.53;;;1.73;;
48963;SDS011;34776;48.180;16.420;2022-09-09T15:18:32;3.58;;;2.22;;
48963;SDS011;34776;48.180;16.420;2022-09-09T15:20:59;6.10;;;1.80;;
48963;SDS011;34776;48.180;16.420;2022-09-09T15:23:26;5.15;;;1.65;;
48963;SDS011;34776;48.180;16.420;2022-09-09T15:25:55;4.50;;;1.90;;
48963;SDS011;34776;48.180;16.420;2022-09-09T15:28:21;2.28;;;1.52;;
48963;SDS011;34776;48.180;16.420;2022-09-09T15:30:48;8.68;;;1.77;;
48963;SDS011;34776;48.180;16.420;2022-09-09T15:33:14;2.78;;;1.80;;
48963;SDS011;34776;48.180;16.420;2022-09-09T15:35:40;2.35;;;1.77;;
48963;SDS011;34776;48.180;16.420;2022-09-09T15:38:06;4.13;;;1.85;;
48963;SDS011;34776;48.180;16.420;2022-09-09T15:40:31;3.08;;;1.50;;
48963;SDS011;34776;48.180;16.420;2022-09-09T15:42:59;7.05;;;2.10;;
48963;SDS011;34776;48.180;16.420;2022-09-09T15:45:25;4.90;;;1.88;;
48963;SDS011;34776;48.180;16.420;2022-09-09T15:47:51;7.78;;;1.65;;
48963;SDS011;34776;48.180;16.420;2022-09-09T15:50:17;4.05;;;1.58;;
48963;SDS011;34776;48.180;16.420;2022-09-09T15:52:42;2.70;;;2.03;;
48963;SDS011;34776;48.180;16.420;2022-09-09T15:55:07;3.00;;;2.20;;
48963;SDS011;34776;48.180;16.420;2022-09-09T15:57:33;2.67;;;1.80;;
48963;SDS011;34776;48.180;16.420;2022-09-09T15:59:59;3.75;;;2.25;;
48963;SDS011;34776;48.180;16.420;2022-09-09T16:02:25;2.88;;;1.70;;
48963;SDS011;34776;48.180;16.420;2022-09-09T16:04:50;4.78;;;1.85;;
48963;SDS011;34776;48.180;16.420;2022-09-09T16:07:16;2.10;;;1.42;;
48963;SDS011;34776;48.180;16.420;2022-09-09T16:09:41;4.15;;;1.63;;
48963;SDS011;34776;48.180;16.420;2022-09-09T16:12:08;3.45;;;2.17;;
48963;SDS011;34776;48.180;16.420;2022-09-09T16:14:38;3.00;;;2.70;;
48963;SDS011;34776;48.180;16.420;2022-09-09T16:17:04;5.00;;;2.42;;
48963;SDS011;34776;48.180;16.420;2022-09-09T16:19:30;6.28;;;2.22;;
48963;SDS011;34776;48.180;16.420;2022-09-09T16:21:56;3.85;;;1.67;;
48963;SDS011;34776;48.180;16.420;2022-09-09T16:24:22;2.08;;;1.40;;
48963;SDS011;34776;48.180;16.420;2022-09-09T16:26:52;4.10;;;1.67;;
48963;SDS011;34776;48.180;16.420;2022-09-09T16:29:19;2.25;;;1.38;;
48963;SDS011;34776;48.180;16.420;2022-09-09T16:31:47;1.70;;;1.60;;
48963;SDS011;34776;48.180;16.420;2022-09-09T16:34:13;1.60;;;1.30;;
48963;SDS011;34776;48.180;16.420;2022-09-09T16:36:40;1.52;;;1.40;;
48963;SDS011;34776;48.180;16.420;2022-09-09T16:39:07;2.08;;;1.55;;
48963;SDS011;34776;48.180;16.420;2022-09-09T16:41:35;3.03;;;1.77;;
48963;SDS011;34776;48.180;16.420;2022-09-09T16:44:02;6.72;;;5.63;;
48963;SDS011;34776;48.180;16.420;2022-09-09T16:46:30;3.20;;;2.08;;
48963;SDS011;34776;48.180;16.420;2022-09-09T16:48:56;2.53;;;1.85;;
48963;SDS011;34776;48.180;16.420;2022-09-09T16:51:30;2.42;;;1.80;;
48963;SDS011;34776;48.180;16.420;2022-09-09T16:53:58;3.80;;;1.70;;
48963;SDS011;34776;48.180;16.420;2022-09-09T16:56:26;2.40;;;2.05;;
48963;SDS011;34776;48.180;16.420;2022-09-09T16:58:53;3.50;;;2.08;;
48963;SDS011;34776;48.180;16.420;2022-09-09T17:01:24;2.58;;;1.85;;
48963;SDS011;34776;48.180;16.420;2022-09-09T17:03:54;3.03;;;1.80;;
48963;SDS011;34776;48.180;16.420;2022-09-09T17:06:21;3.00;;;1.58;;
48963;SDS011;34776;48.180;16.420;2022-09-09T17:08:53;3.13;;;1.90;;
48963;SDS011;34776;48.180;16.420;2022-09-09T17:11:19;2.42;;;1.85;;
48963;SDS011;34776;48.180;16.420;2022-09-09T17:13:47;5.03;;;2.40;;
48963;SDS011;34776;48.180;16.420;2022-09-09T17:16:14;5.25;;;2.03;;
48963;SDS011;34776;48.180;16.420;2022-09-09T17:18:41;2.70;;;2.15;;
48963;SDS011;34776;48.180;16.420;2022-09-09T17:21:07;5.00;;;2.10;;
48963;SDS011;34776;48.180;16.420;2022-09-09T17:23:38;4.03;;;1.90;;
48963;SDS011;34776;48.180;16.420;2022-09-09T17:26:14;2.00;;;1.83;;
48963;SDS011;34776;48.180;16.420;2022-09-09T17:28:41;5.22;;;2.20;;